Time;durP1;ratioP1;P1;durP2;ratioP2;P2;SDS_P1;SDS_P2;PMS_P1;PMS_P2;Temp;Humidity;BMP_temperature;BMP_pressure;BME280_temperature;BME280_humidity;BME280_pressure;Samples;Min_cycle;Max_cycle;Signal;HPM_P1;HPM_P2
2022/01/12 00:01:44;;;;;;;8.30;2.58;;;19.50;52.10;;;;;;4481304;32;20139;-68
2022/01/12 00:04:11;;;;;;;5.85;2.80;;;19.50;52.20;;;;;;4480300;32;20518;-68
2022/01/12 00:06:37;;;;;;;6.65;2.28;;;19.50;52.20;;;;;;4481266;32;20125;-68
2022/01/12 00:09:08;;;;;;;8.23;2.42;;;19.50;52.20;;;;;;4481253;32;20194;-68
2022/01/12 00:11:35;;;;;;;9.65;2.70;;;19.50;52.30;;;;;;4480667;32;20582;-68
2022/01/12 00:14:01;;;;;;;7.30;2.50;;;19.50;52.30;;;;;;4480023;32;20568;-68
2022/01/12 00:16:27;;;;;;;7.72;3.05;;;19.50;52.40;;;;;;4480867;32;20146;-68
2022/01/12 00:18:53;;;;;;;9.10;2.92;;;19.50;52.40;;;;;;4479390;32;20210;-68
2022/01/12 00:21:19;;;;;;;5.32;2.20;;;19.50;52.50;;;;;;4479722;32;20145;-68
2022/01/12 00:23:45;;;;;;;6.53;3.03;;;19.40;52.40;;;;;;4478845;32;20583;-68
2022/01/12 00:26:23;;;;;;;5.95;2.40;;;19.40;52.40;;;;;;4480693;32;20265;-68
2022/01/12 00:34:18;;;;;;;7.22;2.53;;;19.40;52.60;;;;;;4480940;32;20144;-68
2022/01/12 00:36:44;;;;;;;5.28;2.60;;;19.30;52.50;;;;;;4480683;32;20144;-68
2022/01/12 00:39:10;;;;;;;8.63;2.50;;;19.30;52.50;;;;;;4466667;32;20129;-69
2022/01/12 00:41:37;;;;;;;6.15;2.83;;;19.30;52.60;;;;;;4453334;32;20226;-68
2022/01/12 00:44:07;;;;;;;8.77;2.42;;;19.30;52.60;;;;;;4480573;32;20113;-68
2022/01/12 00:46:33;;;;;;;8.00;2.40;;;19.30;52.60;;;;;;4480995;32;20310;-68
2022/01/12 00:48:59;;;;;;;4.93;2.33;;;19.30;52.70;;;;;;4479336;32;20144;-68
2022/01/12 00:51:30;;;;;;;7.65;2.40;;;19.20;52.70;;;;;;4479509;32;20121;-69
2022/01/12 00:53:57;;;;;;;6.20;2.47;;;19.20;52.70;;;;;;4480781;32;20255;-68
2022/01/12 00:56:24;;;;;;;4.13;2.47;;;19.20;52.70;;;;;;4480668;32;20141;-68
2022/01/12 00:58:50;;;;;;;6.22;2.38;;;19.20;52.70;;;;;;4480512;32;20259;-69
2022/01/12 01:01:21;;;;;;;5.25;2.50;;;19.20;52.70;;;;;;4480233;32;20652;-68
2022/01/12 01:03:48;;;;;;;5.38;2.40;;;19.20;52.80;;;;;;4466966;32;20137;-68
2022/01/12 01:06:14;;;;;;;6.65;2.35;;;19.20;52.80;;;;;;4466171;32;20663;-68
2022/01/12 01:08:41;;;;;;;8.88;2.42;;;19.20;52.80;;;;;;4466784;32;20708;-68
2022/01/12 01:11:07;;;;;;;4.65;2.13;;;19.20;52.90;;;;;;4480159;32;20259;-68
2022/01/12 01:13:45;;;;;;;4.00;2.20;;;19.20;52.90;;;;;;4480670;32;20121;-69
2022/01/12 01:26:52;;;;;;;5.45;2.20;;;19.10;52.90;;;;;;4480264;32;20732;-69
2022/01/12 01:29:18;;;;;;;4.95;1.95;;;19.10;52.90;;;;;;4480378;32;20131;-68
2022/01/12 01:31:45;;;;;;;4.80;2.30;;;19.10;52.90;;;;;;4480099;32;20148;-68
2022/01/12 01:34:14;;;;;;;5.07;2.35;;;19.10;52.90;;;;;;4480000;32;20121;-68
2022/01/12 01:36:51;;;;;;;6.00;2.78;;;19.00;52.90;;;;;;4480159;32;20202;-69
2022/01/12 01:39:20;;;;;;;6.82;2.58;;;19.00;52.90;;;;;;4480282;32;20243;-68
2022/01/12 01:42:18;;;;;;;3.67;2.30;;;19.00;53.00;;;;;;4480174;32;20169;-69
2022/01/12 01:55:29;;;;;;;3.90;2.20;;;18.90;52.90;;;;;;4467909;32;20171;-69
2022/01/12 01:57:56;;;;;;;4.68;2.30;;;18.90;54.10;;;;;;4479252;32;20287;-68
2022/01/12 02:00:25;;;;;;;5.50;2.05;;;18.90;53.00;;;;;;4479409;32;20143;-68
2022/01/12 02:02:53;;;;;;;6.70;2.15;;;19.00;53.00;;;;;;4478701;32;20144;-68
2022/01/12 02:05:20;;;;;;;5.57;2.35;;;18.90;53.00;;;;;;4479807;32;20113;-68
2022/01/12 02:07:46;;;;;;;4.28;2.20;;;18.90;53.00;;;;;;4480116;32;20140;-68
2022/01/12 02:10:12;;;;;;;3.92;2.38;;;18.90;53.00;;;;;;4478404;32;20125;-68
2022/01/12 02:12:38;;;;;;;4.75;2.15;;;18.90;53.00;;;;;;4480374;32;20147;-68
2022/01/12 02:15:17;;;;;;;5.07;2.72;;;18.90;53.10;;;;;;4479975;32;20121;-69
2022/01/12 02:18:00;;;;;;;3.40;1.90;;;18.90;53.10;;;;;;4480387;32;20129;-68
2022/01/12 02:37:01;;;;;;;3.97;2.25;;;18.80;53.20;;;;;;4479739;32;20214;-68
2022/01/12 02:42:29;;;;;;;2.88;2.15;;;18.80;53.10;;;;;;4430710;32;20389;-68
2022/01/12 02:50:56;;;;;;;5.57;2.40;;;18.70;53.20;;;;;;4482518;32;20144;-68
2022/01/12 02:53:41;;;;;;;4.15;2.30;;;18.70;53.20;;;;;;4471012;32;20191;-68
2022/01/12 02:56:09;;;;;;;3.85;2.38;;;18.70;53.20;;;;;;4482905;32;20447;-68
2022/01/12 02:58:36;;;;;;;3.85;2.40;;;18.70;53.20;;;;;;4467995;32;20218;-68
2022/01/12 03:03:50;;;;;;;3.67;2.08;;;18.70;53.20;;;;;;4482842;32;20578;-68
2022/01/12 03:06:21;;;;;;;7.50;2.38;;;18.70;53.20;;;;;;4482010;32;20125;-68
2022/01/12 03:08:48;;;;;;;3.90;2.10;;;18.70;53.20;;;;;;4482419;32;20136;-68
2022/01/12 03:11:16;;;;;;;3.67;2.35;;;18.70;53.20;;;;;;4480932;32;20141;-68
2022/01/12 03:13:43;;;;;;;3.55;2.30;;;18.60;53.20;;;;;;4482307;32;20198;-68
2022/01/12 03:16:17;;;;;;;4.13;2.20;;;18.60;53.20;;;;;;4482225;32;20201;-68
2022/01/12 03:18:46;;;;;;;4.28;1.88;;;18.60;53.20;;;;;;4480636;32;20195;-68
2022/01/12 03:21:13;;;;;;;3.90;2.10;;;18.60;53.30;;;;;;4482237;32;20143;-68
2022/01/12 03:23:39;;;;;;;2.95;2.08;;;18.60;53.20;;;;;;4481940;32;20306;-68
2022/01/12 03:26:06;;;;;;;3.60;1.88;;;18.60;53.20;;;;;;4482076;32;20136;-68
2022/01/12 03:28:33;;;;;;;3.22;2.00;;;18.60;53.30;;;;;;4481329;32;20182;-68
2022/01/12 03:38:45;;;;;;;4.93;1.70;;;18.60;53.40;;;;;;4481793;32;20145;-68
2022/01/12 03:41:11;;;;;;;3.40;2.13;;;18.60;53.40;;;;;;4467521;32;20187;-68
2022/01/12 03:43:37;;;;;;;3.10;2.03;;;18.50;53.30;;;;;;4481962;32;20597;-68
2022/01/12 03:46:04;;;;;;;4.88;2.00;;;18.50;54.20;;;;;;4481601;32;20125;-68
2022/01/12 03:48:29;;;;;;;4.15;2.15;;;18.50;53.30;;;;;;4481453;32;20148;-68
2022/01/12 03:50:56;;;;;;;2.50;1.92;;;18.50;53.30;;;;;;4480725;32;20129;-67
2022/01/12 03:53:23;;;;;;;3.30;2.15;;;18.50;53.40;;;;;;4467205;32;20694;-68
2022/01/12 03:55:49;;;;;;;3.78;1.85;;;18.50;53.30;;;;;;4481710;32;20140;-68
2022/01/12 03:58:15;;;;;;;3.00;2.10;;;18.50;53.30;;;;;;4481534;32;20129;-68
2022/01/12 04:00:41;;;;;;;2.92;2.05;;;18.50;53.40;;;;;;4481712;32;20171;-68
2022/01/12 04:03:08;;;;;;;3.47;2.13;;;18.50;53.40;;;;;;4481278;32;20136;-68
2022/01/12 04:08:21;;;;;;;2.30;1.80;;;18.40;53.40;;;;;;4468282;32;20137;-68
2022/01/12 04:10:56;;;;;;;2.33;1.90;;;18.40;53.50;;;;;;4481229;32;20596;-67
2022/01/12 04:13:23;;;;;;;2.78;2.20;;;18.50;53.40;;;;;;4481825;32;20133;-69
2022/01/12 04:15:54;;;;;;;3.35;2.10;;;18.40;53.30;;;;;;4480892;32;20133;-69
2022/01/12 04:18:20;;;;;;;2.95;2.05;;;18.40;53.30;;;;;;4481162;32;20125;-69
2022/01/12 04:20:49;;;;;;;3.25;2.00;;;18.40;53.30;;;;;;4481287;32;20140;-68
2022/01/12 04:23:17;;;;;;;2.95;1.92;;;18.40;53.30;;;;;;4480989;32;20695;-68
2022/01/12 04:25:56;;;;;;;2.92;1.80;;;18.40;53.40;;;;;;4481012;32;20144;-68
2022/01/12 04:28:23;;;;;;;3.22;1.80;;;18.40;53.30;;;;;;4480896;32;20136;-69
2022/01/12 04:30:51;;;;;;;2.28;1.65;;;18.40;53.40;;;;;;4481205;32;20121;-69
2022/01/12 04:33:18;;;;;;;3.30;2.08;;;18.40;53.40;;;;;;4481000;32;20113;-69
2022/01/12 04:35:48;;;;;;;4.15;1.92;;;18.40;53.40;;;;;;4480544;32;20156;-69
2022/01/12 04:38:15;;;;;;;3.15;1.90;;;18.40;53.40;;;;;;4481079;32;20109;-69
2022/01/12 04:40:41;;;;;;;2.10;1.80;;;18.40;53.40;;;;;;4466280;32;20147;-69
2022/01/12 04:43:09;;;;;;;3.33;2.03;;;18.30;53.30;;;;;;4481158;32;20659;-69
2022/01/12 04:45:41;;;;;;;3.33;2.00;;;18.30;53.30;;;;;;4480570;32;20148;-69
2022/01/12 04:48:31;;;;;;;2.88;1.92;;;18.30;53.30;;;;;;4481186;32;20132;-68
2022/01/12 04:50:54;;;;;;;2.88;1.80;;;18.30;53.40;;;;;;4480793;32;20117;-69
2022/01/12 04:53:21;;;;;;;2.45;1.80;;;18.30;53.30;;;;;;4480136;32;20147;-69
2022/01/12 04:55:49;;;;;;;3.80;2.15;;;18.30;53.30;;;;;;4480556;32;20307;-68
2022/01/12 04:58:16;;;;;;;3.40;2.03;;;18.30;53.40;;;;;;4479287;32;20120;-68
2022/01/12 05:00:43;;;;;;;2.53;1.70;;;18.30;53.40;;;;;;4480694;32;20186;-69
2022/01/12 05:13:51;;;;;;;2.95;1.83;;;18.30;53.40;;;;;;4480559;32;20597;-68
2022/01/12 05:16:19;;;;;;;2.58;1.55;;;18.20;53.30;;;;;;4480471;32;20195;-68
2022/01/12 05:18:47;;;;;;;2.05;1.63;;;18.30;53.40;;;;;;4480207;32;20302;-67
2022/01/12 05:21:15;;;;;;;2.67;1.85;;;18.20;53.30;;;;;;4480491;32;20116;-68
2022/01/12 05:23:41;;;;;;;2.38;1.67;;;18.20;53.30;;;;;;4480253;32;20238;-68
2022/01/12 05:26:07;;;;;;;2.72;1.83;;;18.20;53.30;;;;;;4479070;32;20298;-68
2022/01/12 05:28:34;;;;;;;2.33;1.67;;;18.20;53.40;;;;;;4480316;32;20255;-68
2022/01/12 05:31:01;;;;;;;2.70;1.75;;;18.20;53.40;;;;;;4479307;32;20195;-68
2022/01/12 05:33:28;;;;;;;1.65;1.40;;;18.20;53.40;;;;;;4480568;32;20133;-68
2022/01/12 05:35:55;;;;;;;1.90;1.50;;;18.20;53.40;;;;;;4478935;32;20266;-68
2022/01/12 05:38:22;;;;;;;1.95;1.50;;;18.20;53.40;;;;;;4480532;32;20129;-69
2022/01/12 05:40:55;;;;;;;3.20;1.70;;;18.20;53.40;;;;;;4479935;32;20186;-68
2022/01/12 05:43:26;;;;;;;1.80;1.60;;;18.10;53.30;;;;;;4480416;32;20124;-69
2022/01/12 05:45:53;;;;;;;1.73;1.35;;;18.10;53.30;;;;;;4479856;32;20133;-67
2022/01/12 05:50:49;;;;;;;1.60;1.30;;;18.10;53.30;;;;;;4480483;32;20282;-68
2022/01/12 05:53:17;;;;;;;2.30;1.50;;;18.10;53.40;;;;;;4479754;32;20196;-68
2022/01/12 05:55:43;;;;;;;2.28;1.52;;;18.10;53.40;;;;;;4480354;32;20669;-68
2022/01/12 05:58:11;;;;;;;2.55;1.67;;;18.10;53.40;;;;;;4479760;32;20199;-68
2022/01/12 06:00:37;;;;;;;2.50;1.70;;;18.10;53.40;;;;;;4480444;32;20474;-68
2022/01/12 06:03:03;;;;;;;2.08;1.50;;;18.10;53.40;;;;;;4478657;32;20176;-68
2022/01/12 06:05:29;;;;;;;2.22;1.50;;;18.10;53.50;;;;;;4466108;32;20141;-68
2022/01/12 06:07:55;;;;;;;1.73;1.50;;;18.10;53.50;;;;;;4480353;32;20466;-68
2022/01/12 06:10:23;;;;;;;2.15;1.50;;;18.10;53.50;;;;;;4465717;32;20143;-68
2022/01/12 06:12:52;;;;;;;2.50;1.75;;;18.10;53.50;;;;;;4480164;32;20602;-68
2022/01/12 06:15:18;;;;;;;2.35;1.60;;;18.00;53.40;;;;;;4479846;32;20145;-67
2022/01/12 06:17:44;;;;;;;1.60;1.33;;;18.00;53.50;;;;;;4480115;32;20137;-68
2022/01/12 06:20:10;;;;;;;2.30;1.30;;;18.00;53.40;;;;;;4479683;32;20551;-68
2022/01/12 06:22:37;;;;;;;2.33;1.40;;;18.00;53.50;;;;;;4481824;32;20172;-68
2022/01/12 06:25:07;;;;;;;2.03;1.45;;;18.00;53.50;;;;;;4483147;32;20129;-68
2022/01/12 06:27:34;;;;;;;2.75;1.58;;;18.00;53.50;;;;;;4482865;32;20291;-68
2022/01/12 06:32:30;;;;;;;2.40;1.70;;;18.00;53.50;;;;;;4468911;32;20133;-68
2022/01/12 06:34:57;;;;;;;2.10;1.35;;;18.00;53.60;;;;;;4482917;32;20128;-69
2022/01/12 06:37:23;;;;;;;1.52;1.20;;;17.90;53.50;;;;;;4468570;32;20581;-68
2022/01/12 06:39:49;;;;;;;1.70;1.30;;;17.90;53.60;;;;;;4481572;32;20129;-69
2022/01/12 06:42:15;;;;;;;2.80;1.80;;;17.90;53.60;;;;;;4483036;32;20283;-68
2022/01/12 06:44:41;;;;;;;1.98;1.30;;;17.90;53.60;;;;;;4482695;32;20106;-68
2022/01/12 06:47:07;;;;;;;1.88;1.25;;;17.90;53.60;;;;;;4482562;32;20129;-69
2022/01/12 06:49:33;;;;;;;1.92;1.30;;;17.90;53.60;;;;;;4482619;32;20270;-68
2022/01/12 06:52:02;;;;;;;1.88;1.40;;;17.90;53.60;;;;;;4482791;32;20128;-67
2022/01/12 06:54:28;;;;;;;1.75;1.20;;;17.90;53.60;;;;;;4482628;32;20651;-67
2022/01/12 06:56:54;;;;;;;2.15;1.30;;;17.90;53.60;;;;;;4482451;32;20133;-67
2022/01/12 06:59:19;;;;;;;1.60;1.40;;;17.90;53.60;;;;;;4481592;32;20466;-67
2022/01/12 07:01:45;;;;;;;1.80;1.45;;;17.90;53.80;;;;;;4468350;32;20182;-67
2022/01/12 07:04:11;;;;;;;2.17;1.40;;;17.90;53.70;;;;;;4482284;32;20141;-67
2022/01/12 07:06:37;;;;;;;1.70;1.27;;;17.80;53.70;;;;;;4482205;32;20132;-67
2022/01/12 07:09:04;;;;;;;1.98;1.40;;;17.80;53.70;;;;;;4482299;32;20109;-67
2022/01/12 07:11:31;;;;;;;2.05;1.20;;;17.80;53.70;;;;;;4482022;32;20191;-67
2022/01/12 07:13:57;;;;;;;2.03;1.50;;;17.80;53.70;;;;;;4482306;32;20129;-68
2022/01/12 07:16:23;;;;;;;1.58;1.23;;;17.80;53.70;;;;;;4482634;32;20125;-67
2022/01/12 07:18:49;;;;;;;1.33;1.10;;;17.80;53.80;;;;;;4482154;32;20578;-67
2022/01/12 07:21:15;;;;;;;1.38;1.20;;;17.80;53.70;;;;;;4468147;32;20133;-67
2022/01/12 07:23:41;;;;;;;1.67;1.35;;;17.80;53.70;;;;;;4481974;32;20144;-67
2022/01/12 07:26:08;;;;;;;2.28;1.20;;;17.80;53.80;;;;;;4468247;32;20132;-67
2022/01/12 07:28:34;;;;;;;2.30;1.20;;;17.80;53.80;;;;;;4467773;32;20132;-67
2022/01/12 07:31:00;;;;;;;1.70;1.13;;;17.70;53.70;;;;;;4468145;32;20656;-67
2022/01/12 07:33:26;;;;;;;1.60;1.20;;;17.70;53.70;;;;;;4467432;32;20133;-67
2022/01/12 07:35:53;;;;;;;1.60;1.20;;;17.70;53.70;;;;;;4481854;32;20141;-67
2022/01/12 07:38:19;;;;;;;2.00;1.30;;;17.70;53.70;;;;;;4481938;32;20152;-67
2022/01/12 07:40:45;;;;;;;2.13;1.30;;;17.70;53.70;;;;;;4481772;32;20133;-67
2022/01/12 07:43:11;;;;;;;1.90;1.25;;;17.70;53.70;;;;;;4467602;32;20140;-67
2022/01/12 07:45:37;;;;;;;1.52;1.08;;;17.70;53.70;;;;;;4481777;32;20133;-67
2022/01/12 07:48:04;;;;;;;1.15;1.00;;;17.70;53.70;;;;;;4467976;32;20128;-68
2022/01/12 07:50:30;;;;;;;1.58;1.15;;;17.70;53.70;;;;;;4481884;32;20132;-67
2022/01/12 07:52:56;;;;;;;1.77;1.00;;;17.70;53.80;;;;;;4481388;32;20202;-67
2022/01/12 07:55:23;;;;;;;2.38;1.38;;;17.70;53.80;;;;;;4481707;32;20136;-67
2022/01/12 07:57:50;;;;;;;1.42;1.15;;;17.60;53.70;;;;;;4480580;32;20144;-67
2022/01/12 08:00:17;;;;;;;1.20;0.98;;;17.70;53.70;;;;;;4481320;32;20644;-67
2022/01/12 08:02:43;;;;;;;1.70;1.10;;;17.60;53.70;;;;;;4481374;32;20146;-67
2022/01/12 08:05:11;;;;;;;1.13;1.00;;;17.60;53.70;;;;;;4480520;32;20149;-67
2022/01/12 08:07:39;;;;;;;2.20;1.10;;;17.60;53.70;;;;;;4481547;32;20113;-67
2022/01/12 08:10:07;;;;;;;2.08;1.10;;;17.60;53.80;;;;;;4480373;32;20143;-67
2022/01/12 08:12:34;;;;;;;1.60;1.10;;;17.60;53.80;;;;;;4481437;32;20238;-67
2022/01/12 08:15:00;;;;;;;2.92;1.30;;;17.60;53.80;;;;;;4481362;32;20772;-68
2022/01/12 08:17:26;;;;;;;1.40;1.10;;;17.60;53.80;;;;;;4480287;32;20182;-67
2022/01/12 08:19:55;;;;;;;1.02;0.93;;;17.60;53.80;;;;;;4480026;32;20132;-67
2022/01/12 08:22:21;;;;;;;1.13;0.93;;;17.60;53.80;;;;;;4465416;32;20190;-66
2022/01/12 08:24:47;;;;;;;1.52;1.10;;;17.60;53.80;;;;;;4465196;32;20149;-66
2022/01/12 08:27:13;;;;;;;3.63;1.50;;;17.50;53.60;;;;;;4464774;32;20464;-66
2022/01/12 08:29:40;;;;;;;4.18;1.52;;;17.50;52.70;;;;;;4467433;32;20412;-66
2022/01/12 08:32:06;;;;;;;5.50;1.75;;;17.50;51.10;;;;;;4467549;32;20517;-66
2022/01/12 08:34:32;;;;;;;3.80;1.50;;;17.50;50.30;;;;;;4478635;32;20385;-67
2022/01/12 08:36:58;;;;;;;2.28;1.40;;;17.40;50.10;;;;;;4479827;32;20210;-66
2022/01/12 08:39:24;;;;;;;2.33;1.38;;;17.30;50.70;;;;;;4479965;32;20255;-67
2022/01/12 08:41:50;;;;;;;2.13;1.13;;;17.30;51.20;;;;;;4480184;32;20570;-66
2022/01/12 08:44:16;;;;;;;2.45;1.33;;;17.30;51.30;;;;;;4478258;32;20129;-67
2022/01/12 08:46:42;;;;;;;4.22;1.20;;;17.40;51.30;;;;;;4479790;32;20140;-66
2022/01/12 08:49:08;;;;;;;3.38;1.33;;;17.40;51.30;;;;;;4477911;32;20271;-66
2022/01/12 08:51:37;;;;;;;3.45;1.33;;;17.40;51.30;;;;;;4480687;32;20151;-67
2022/01/12 08:54:07;;;;;;;3.60;1.27;;;17.50;51.30;;;;;;4480493;32;20147;-67
2022/01/12 08:56:33;;;;;;;4.57;1.23;;;17.50;51.40;;;;;;4480978;32;20125;-67
2022/01/12 08:58:59;;;;;;;2.40;1.00;;;17.60;51.40;;;;;;4480960;32;20153;-68
2022/01/12 09:01:24;;;;;;;3.08;1.20;;;17.70;51.40;;;;;;4480325;32;20125;-67
2022/01/12 09:03:50;;;;;;;2.30;1.10;;;17.80;51.30;;;;;;4480975;32;20131;-68
2022/01/12 09:06:16;;;;;;;2.80;1.25;;;17.80;51.30;;;;;;4480484;32;20137;-68
2022/01/12 09:08:44;;;;;;;3.80;1.27;;;17.90;51.20;;;;;;4465829;32;20474;-68
2022/01/12 09:11:11;;;;;;;1.75;0.80;;;18.00;51.10;;;;;;4467641;32;20714;-68
2022/01/12 09:13:39;;;;;;;2.22;1.50;;;18.10;50.90;;;;;;4480648;32;20520;-69
2022/01/12 09:16:06;;;;;;;2.97;0.85;;;18.20;50.80;;;;;;4479303;32;20136;-67
2022/01/12 09:18:37;;;;;;;2.50;1.23;;;18.30;51.50;;;;;;4479342;32;20151;-65
2022/01/12 09:21:04;;;;;;;5.35;1.02;;;18.40;50.40;;;;;;4480275;32;20238;-66
2022/01/12 09:23:30;;;;;;;3.78;1.02;;;18.60;50.30;;;;;;4479170;32;20140;-67
2022/01/12 09:25:58;;;;;;;2.60;0.90;;;18.60;50.20;;;;;;4468550;32;20151;-65
2022/01/12 09:28:24;;;;;;;2.40;0.77;;;18.80;50.20;;;;;;4471619;32;20147;-67
2022/01/12 09:30:53;;;;;;;3.25;0.80;;;18.90;50.00;;;;;;4472873;32;20270;-67
2022/01/12 09:33:20;;;;;;;2.95;1.10;;;19.00;50.00;;;;;;4466252;32;20255;-68
2022/01/12 09:35:49;;;;;;;4.97;0.93;;;19.10;49.80;;;;;;4464708;32;20246;-68
2022/01/12 09:38:19;;;;;;;2.90;1.02;;;19.20;49.70;;;;;;4473008;32;20125;-70
2022/01/12 09:40:46;;;;;;;4.28;1.25;;;19.30;49.60;;;;;;4479241;32;20133;-68
2022/01/12 09:43:12;;;;;;;3.42;1.05;;;19.40;49.40;;;;;;4480056;32;20474;-68
2022/01/12 09:45:43;;;;;;;2.35;0.80;;;19.50;49.20;;;;;;4464875;32;20271;-68
2022/01/12 09:48:10;;;;;;;2.70;0.73;;;19.60;49.10;;;;;;4479631;32;20125;-67
2022/01/12 09:50:37;;;;;;;2.85;0.80;;;19.70;48.90;;;;;;4479736;32;20133;-67
2022/01/12 09:53:03;;;;;;;3.13;1.08;;;19.90;48.80;;;;;;4478674;32;20176;-68
2022/01/12 09:55:29;;;;;;;2.25;0.95;;;19.90;48.60;;;;;;4479319;32;20144;-68
2022/01/12 09:57:55;;;;;;;1.98;1.00;;;20.00;48.40;;;;;;4468244;32;20133;-67
2022/01/12 10:00:26;;;;;;;1.42;0.77;;;20.10;48.30;;;;;;4482283;32;20137;-72
2022/01/12 10:02:53;;;;;;;1.85;0.60;;;20.20;48.20;;;;;;4481282;32;20286;-69
2022/01/12 10:05:31;;;;;;;2.72;0.80;;;20.30;48.00;;;;;;4481210;32;20211;-69
2022/01/12 10:08:12;;;;;;;1.90;0.68;;;20.40;48.00;;;;;;4482268;32;20605;-70
2022/01/12 10:10:39;;;;;;;2.22;0.80;;;20.50;47.80;;;;;;4481292;32;20160;-68
2022/01/12 10:13:17;;;;;;;1.83;0.95;;;20.60;47.70;;;;;;4482928;32;20132;-68
2022/01/12 10:15:43;;;;;;;3.05;0.73;;;20.60;47.50;;;;;;4468154;32;20180;-72
2022/01/12 10:18:09;;;;;;;2.75;0.70;;;20.70;47.30;;;;;;4467908;32;20306;-75
2022/01/12 10:20:44;;;;;;;3.55;0.90;;;20.80;47.20;;;;;;4467875;32;20147;-70
2022/01/12 10:23:13;;;;;;;3.13;0.70;;;20.90;47.10;;;;;;4476748;32;20466;-66
2022/01/12 10:25:41;;;;;;;2.50;0.70;;;21.00;46.90;;;;;;4479871;32;20141;-67
2022/01/12 10:28:16;;;;;;;3.83;0.70;;;21.00;46.80;;;;;;4475043;32;20243;-67
2022/01/12 10:30:57;;;;;;;2.63;0.75;;;21.10;46.70;;;;;;4481185;32;20121;-68
2022/01/12 10:33:25;;;;;;;2.65;0.70;;;21.20;46.60;;;;;;4481172;32;20133;-68
2022/01/12 10:35:58;;;;;;;1.83;1.00;;;21.30;46.30;;;;;;4480969;32;20274;-66
2022/01/12 10:38:26;;;;;;;3.45;1.10;;;21.30;46.20;;;;;;4468797;32;20237;-68
2022/01/12 10:40:57;;;;;;;2.75;0.70;;;21.40;46.10;;;;;;4478227;32;20140;-66
2022/01/12 10:43:36;;;;;;;1.50;0.77;;;21.50;46.00;;;;;;4469407;32;20164;-69
2022/01/12 10:46:05;;;;;;;3.13;0.70;;;21.50;45.90;;;;;;4461515;32;20159;-67
2022/01/12 10:48:44;;;;;;;15.02;0.77;;;21.60;45.70;;;;;;4479064;32;20120;-66
2022/01/12 10:51:11;;;;;;;9.95;1.73;;;21.60;45.60;;;;;;4480113;32;20135;-65
2022/01/12 10:53:39;;;;;;;4.90;1.20;;;21.60;45.60;;;;;;4479064;32;20137;-65
2022/01/12 10:56:08;;;;;;;7.75;0.90;;;21.70;45.60;;;;;;4481878;32;20140;-66
2022/01/12 10:58:37;;;;;;;7.57;0.80;;;21.70;45.60;;;;;;4481414;32;20214;-66
2022/01/12 11:01:03;;;;;;;2.20;0.77;;;21.60;45.60;;;;;;4481656;32;20243;-67
2022/01/12 11:03:33;;;;;;;4.03;0.85;;;21.60;45.70;;;;;;4481998;32;20129;-67
2022/01/12 11:05:59;;;;;;;4.30;0.70;;;21.60;45.90;;;;;;4480990;32;20237;-68
2022/01/12 11:08:26;;;;;;;4.82;1.05;;;21.60;45.90;;;;;;4481851;32;20172;-69
2022/01/12 11:10:57;;;;;;;4.13;0.82;;;21.60;45.90;;;;;;4481785;32;20242;-69
2022/01/12 11:13:25;;;;;;;4.97;0.85;;;21.70;45.90;;;;;;4482686;32;20159;-68
2022/01/12 11:15:53;;;;;;;7.43;0.73;;;21.70;45.80;;;;;;4482149;32;20141;-69
2022/01/12 11:18:25;;;;;;;2.92;0.63;;;21.70;45.70;;;;;;4482274;32;20143;-68
2022/01/12 11:20:58;;;;;;;4.97;0.50;;;21.80;45.60;;;;;;4482287;32;20217;-68
2022/01/12 11:23:36;;;;;;;3.50;0.80;;;21.80;45.40;;;;;;4482123;32;20164;-67
2022/01/12 11:26:17;;;;;;;6.95;0.82;;;21.90;45.40;;;;;;4482093;32;20255;-67
2022/01/12 11:28:45;;;;;;;3.15;0.80;;;21.90;45.50;;;;;;4482137;32;20180;-68
2022/01/12 11:31:12;;;;;;;2.47;0.80;;;21.90;45.60;;;;;;4480935;32;20136;-68
2022/01/12 11:33:42;;;;;;;6.38;0.85;;;21.80;45.70;;;;;;4482520;32;20125;-67
2022/01/12 11:36:15;;;;;;;5.38;0.70;;;21.70;45.90;;;;;;4480968;32;20641;-67
2022/01/12 11:38:47;;;;;;;3.17;0.52;;;21.60;46.20;;;;;;4482022;32;20135;-68
2022/01/12 11:41:16;;;;;;;2.90;0.57;;;21.50;46.40;;;;;;4479080;32;20214;-68
2022/01/12 11:43:50;;;;;;;5.32;0.85;;;21.40;46.70;;;;;;4481321;32;20129;-68
2022/01/12 11:46:25;;;;;;;6.03;0.47;;;21.30;47.00;;;;;;4466728;32;20133;-69
2022/01/12 11:48:55;;;;;;;5.30;0.80;;;21.30;47.20;;;;;;4479806;32;20152;-68
2022/01/12 11:51:37;;;;;;;2.33;0.60;;;21.20;47.40;;;;;;4479556;32;20136;-68
2022/01/12 11:54:13;;;;;;;8.90;0.60;;;21.10;47.50;;;;;;4480377;32;20132;-69
2022/01/12 11:56:55;;;;;;;4.57;0.50;;;21.20;47.70;;;;;;4466049;32;20156;-69
2022/01/12 11:59:22;;;;;;;3.63;0.77;;;21.20;47.70;;;;;;4481140;32;20117;-70
2022/01/12 12:01:51;;;;;;;4.57;0.60;;;21.20;47.70;;;;;;4454174;32;20159;-69
2022/01/12 12:04:26;;;;;;;3.45;0.63;;;21.20;47.70;;;;;;4479960;32;20143;-68
2022/01/12 12:07:25;;;;;;;3.58;0.50;;;21.20;47.80;;;;;;4480489;32;20133;-69
2022/01/12 12:09:57;;;;;;;1.30;0.63;;;21.20;47.80;;;;;;4469426;32;20129;-67
2022/01/12 12:12:26;;;;;;;3.67;0.50;;;21.20;47.80;;;;;;4479226;32;20133;-68
2022/01/12 12:14:55;;;;;;;1.30;0.45;;;21.20;47.90;;;;;;4466197;32;20121;-70
2022/01/12 12:17:23;;;;;;;1.52;0.40;;;21.20;48.00;;;;;;4480312;32;20291;-68
2022/01/12 12:19:51;;;;;;;3.38;0.63;;;21.20;48.00;;;;;;4479449;32;20242;-67
2022/01/12 12:22:20;;;;;;;4.65;0.60;;;21.20;48.00;;;;;;4466019;32;20136;-68
2022/01/12 12:24:55;;;;;;;2.92;0.60;;;21.20;48.00;;;;;;4474353;32;20126;-68
2022/01/12 12:27:23;;;;;;;1.08;0.68;;;21.30;49.00;;;;;;4476252;32;20610;-67
2022/01/12 12:29:51;;;;;;;2.20;0.47;;;21.20;48.10;;;;;;4479872;32;20117;-67
2022/01/12 12:32:19;;;;;;;3.60;0.80;;;21.20;48.20;;;;;;4479408;32;20290;-66
2022/01/12 12:34:46;;;;;;;3.70;0.60;;;21.20;48.20;;;;;;4479003;32;20158;-66
2022/01/12 12:37:16;;;;;;;1.08;0.35;;;21.20;48.20;;;;;;4478854;32;20621;-67
2022/01/12 12:39:45;;;;;;;2.33;0.52;;;21.20;48.20;;;;;;4479167;32;20168;-67
2022/01/12 12:42:19;;;;;;;5.10;0.60;;;21.30;48.30;;;;;;4479253;32;20517;-67
2022/01/12 12:44:48;;;;;;;5.78;0.77;;;21.30;48.30;;;;;;4479720;32;20129;-68
2022/01/12 12:47:20;;;;;;;2.63;0.40;;;21.30;48.30;;;;;;4477009;32;20325;-69
2022/01/12 12:49:57;;;;;;;4.85;0.50;;;21.30;48.30;;;;;;4478864;32;20147;-68
2022/01/12 12:52:32;;;;;;;2.25;0.65;;;21.30;48.30;;;;;;4479915;32;20141;-68
2022/01/12 12:55:04;;;;;;;2.00;0.60;;;21.30;48.20;;;;;;4476978;32;20540;-69
2022/01/12 12:57:30;;;;;;;3.50;0.65;;;21.30;48.20;;;;;;4478479;32;20141;-68
2022/01/12 13:00:33;;;;;;;6.60;1.30;;;21.30;48.20;;;;;;4461645;32;20161;-67
2022/01/12 13:03:00;;;;;;;2.78;0.60;;;21.20;48.10;;;;;;4473345;32;20498;-68
2022/01/12 13:05:32;;;;;;;2.60;1.20;;;21.20;48.20;;;;;;4472324;32;20127;-67
2022/01/12 13:07:58;;;;;;;4.65;0.73;;;21.20;48.30;;;;;;4472933;32;20144;-67
2022/01/12 13:10:29;;;;;;;3.05;0.73;;;21.20;49.20;;;;;;4473867;32;20259;-67
2022/01/12 13:12:58;;;;;;;2.63;0.85;;;21.20;48.30;;;;;;4479186;32;20191;-67
2022/01/12 13:15:29;;;;;;;2.38;0.80;;;21.20;48.40;;;;;;4478134;32;20140;-67
2022/01/12 13:18:19;;;;;;;2.45;0.90;;;21.20;48.40;;;;;;4478878;32;20199;-68
2022/01/12 13:23:56;;;;;;;5.13;0.93;;;21.20;48.50;;;;;;4471045;32;20716;-66
2022/01/12 13:26:25;;;;;;;3.95;0.80;;;21.20;48.60;;;;;;4476557;32;20290;-67
2022/01/12 13:28:51;;;;;;;6.32;0.93;;;21.20;49.60;;;;;;4472619;32;20159;-67
2022/01/12 13:31:19;;;;;;;2.80;0.68;;;21.30;48.70;;;;;;4472318;32;20133;-67
2022/01/12 13:33:48;;;;;;;2.65;0.55;;;21.30;48.80;;;;;;4472158;32;20143;-67
2022/01/12 13:36:20;;;;;;;1.27;0.50;;;21.30;48.80;;;;;;4479200;32;20190;-68
2022/01/12 13:39:07;;;;;;;4.68;1.02;;;21.30;48.90;;;;;;4478130;32;20148;-68
2022/01/12 13:41:38;;;;;;;4.25;1.00;;;21.30;49.00;;;;;;4476241;32;20144;-67
2022/01/12 13:44:16;;;;;;;1.80;0.52;;;21.30;50.00;;;;;;4475535;32;20148;-67
2022/01/12 13:47:12;;;;;;;2.88;0.65;;;21.30;49.10;;;;;;4478569;32;20199;-68
2022/01/12 13:49:37;;;;;;;3.72;0.60;;;21.30;49.20;;;;;;4478637;32;20514;-69
2022/01/12 13:52:09;;;;;;;2.80;1.00;;;21.30;49.10;;;;;;4466107;32;20190;-69
2022/01/12 13:54:38;;;;;;;6.53;0.68;;;21.30;49.10;;;;;;4476978;32;20214;-70
2022/01/12 13:57:05;;;;;;;3.35;0.55;;;21.30;49.10;;;;;;4477933;32;20148;-66
2022/01/12 13:59:42;;;;;;;4.00;0.80;;;21.30;49.20;;;;;;4464893;32;20702;-68
2022/01/12 14:02:13;;;;;;;6.05;0.82;;;21.30;49.20;;;;;;4476045;32;20195;-68
2022/01/12 14:04:43;;;;;;;9.95;0.95;;;21.30;49.20;;;;;;4479763;32;20129;-68
2022/01/12 14:07:11;;;;;;;1.80;0.65;;;21.30;49.20;;;;;;4476751;32;20153;-68
2022/01/12 14:09:43;;;;;;;1.48;0.50;;;21.20;49.20;;;;;;4465404;32;20234;-68
2022/01/12 14:12:15;;;;;;;3.40;1.02;;;21.30;49.20;;;;;;4476050;32;20137;-69
2022/01/12 14:14:54;;;;;;;3.33;0.70;;;21.30;49.20;;;;;;4475008;32;20198;-68
2022/01/12 14:17:42;;;;;;;3.90;0.70;;;21.30;49.10;;;;;;4464031;32;20270;-69
2022/01/12 14:20:15;;;;;;;3.88;0.90;;;21.30;49.10;;;;;;4478224;32;20183;-67
2022/01/12 14:22:47;;;;;;;1.27;0.60;;;21.30;49.10;;;;;;4477940;32;20161;-67